Austin, Texas
Traffic Map
Current Weather Conditions
Austin, Texas
Overcast
Overcast
82°
Feels Like: 88°
Wind Chill: 82° Ceiling: 2200
Heat Index: 88° Visibility: 9mi
Dew Point: 74° Wind: 8mph
Humidity: 76% Direction: 170° (S)
Pressure: 29.65in Gusts: 20mph
Raw Report DataKATT 291951Z AUTO 17007G17KT 130V200 9SM SCT017 BKN022 OVC037 28/23 A2965 RMK AO2 RAB07E16 SLP028 P0000 T02780233
Traffic Incident Summary
Active as of:
Severity:
Category:
InformationThere was an issue retrieving the traffic information for this location. Please try a different location or try again shortly.
Advertisements
Track Severe Weather on mobile